Time;durP1;ratioP1;P1;durP2;ratioP2;P2;SDS_P1;SDS_P2;PMS_P1;PMS_P2;Temp;Humidity;BMP_temperature;BMP_pressure;BME280_temperature;BME280_humidity;BME280_pressure;Samples;Min_cycle;Max_cycle;Signal;HPM_P1;HPM_P2
2023/01/01 00:00:58;;;;;;;189.45;109.95;;;10.60;99.90;;;9.68;100.00;97632.19;5044087;28;20750;-74
2023/01/01 00:03:24;;;;;;;175.02;105.65;;;10.60;99.90;;;9.66;100.00;97630.81;5060686;28;20418;-75
2023/01/01 00:05:49;;;;;;;172.32;102.70;;;10.60;99.90;;;9.62;100.00;97637.63;5051332;28;20484;-74
2023/01/01 00:08:15;;;;;;;923.70;535.70;;;10.60;99.90;;;9.59;100.00;97628.31;5050708;28;20401;-74
2023/01/01 00:10:41;;;;;;;326.63;178.95;;;10.60;99.90;;;9.65;100.00;97637.13;5049674;28;20894;-74
2023/01/01 00:13:07;;;;;;;648.13;430.80;;;10.60;99.90;;;9.70;100.00;97645.13;5051074;28;20507;-75
2023/01/01 00:15:34;;;;;;;167.10;101.47;;;10.60;99.90;;;9.79;100.00;97646.34;5052128;28;20891;-74
2023/01/01 00:18:00;;;;;;;203.40;127.00;;;10.70;99.90;;;9.80;100.00;97655.09;5051913;28;20416;-74
2023/01/01 00:20:26;;;;;;;178.65;101.68;;;10.70;99.90;;;9.79;100.00;97650.84;5051798;28;20429;-74
2023/01/01 00:22:53;;;;;;;833.40;560.80;;;10.70;99.90;;;9.73;100.00;97651.78;5050974;28;20401;-74
2023/01/01 00:25:19;;;;;;;1779.07;909.90;;;10.60;99.90;;;9.69;100.00;97654.94;5051384;28;20887;-73
2023/01/01 00:27:45;;;;;;;745.22;483.88;;;10.60;99.90;;;9.66;100.00;97641.38;5051734;28;20389;-75
2023/01/01 00:30:12;;;;;;;186.25;118.07;;;10.60;99.90;;;9.60;100.00;97647.63;5051611;28;20405;-75
2023/01/01 00:32:39;;;;;;;100.45;59.67;;;10.50;99.90;;;9.53;100.00;97641.69;5050870;28;20398;-75
2023/01/01 00:35:07;;;;;;;86.70;52.80;;;10.50;99.90;;;9.50;100.00;97644.78;5051561;28;20424;-75
2023/01/01 00:37:33;;;;;;;89.05;52.88;;;10.40;99.90;;;9.42;100.00;97645.97;5051886;28;20722;-75
2023/01/01 00:39:58;;;;;;;87.95;52.67;;;10.40;99.90;;;9.37;100.00;97643.25;5051421;28;20490;-74
2023/01/01 00:42:24;;;;;;;80.95;48.20;;;10.30;99.90;;;9.30;100.00;97640.75;5051103;28;20871;-75
2023/01/01 00:44:50;;;;;;;89.53;52.93;;;10.20;99.90;;;9.27;100.00;97640.41;5051374;28;20484;-75
2023/01/01 00:47:16;;;;;;;82.47;47.95;;;10.20;99.90;;;9.22;100.00;97642.97;5051492;28;20922;-75
2023/01/01 00:49:43;;;;;;;90.95;50.45;;;10.20;99.90;;;9.21;100.00;97638.72;5051431;28;20500;-75
2023/01/01 00:52:09;;;;;;;75.05;44.13;;;10.20;99.90;;;9.16;100.00;97646.56;5050893;28;20493;-75
2023/01/01 00:54:35;;;;;;;70.38;42.55;;;10.10;99.90;;;9.10;100.00;97637.72;5051175;28;20496;-74
2023/01/01 00:57:01;;;;;;;89.53;50.97;;;10.10;99.90;;;9.08;100.00;97639.00;5051329;28;20397;-74
2023/01/01 00:59:27;;;;;;;79.80;45.05;;;10.00;99.90;;;9.03;100.00;97642.31;5051129;28;20462;-73
2023/01/01 01:01:53;;;;;;;93.25;48.42;;;10.00;99.90;;;9.02;100.00;97630.16;5050750;28;20401;-74
2023/01/01 01:04:19;;;;;;;240.27;98.80;;;10.00;99.90;;;8.99;100.00;97629.84;5050775;28;20477;-73
2023/01/01 01:06:46;;;;;;;131.63;60.87;;;10.00;99.90;;;8.97;100.00;97626.63;5051288;28;20485;-74
2023/01/01 01:09:12;;;;;;;83.15;41.97;;;10.00;99.90;;;8.94;100.00;97630.56;5051197;28;20426;-74
2023/01/01 01:11:38;;;;;;;90.28;45.88;;;9.90;99.90;;;8.90;100.00;97624.94;5050512;28;20740;-74
2023/01/01 01:14:04;;;;;;;89.18;47.03;;;9.90;99.90;;;8.86;100.00;97621.16;5050878;28;20452;-74
2023/01/01 01:16:33;;;;;;;100.28;50.90;;;9.80;99.90;;;8.85;100.00;97619.56;5051118;28;20963;-74
2023/01/01 01:19:03;;;;;;;83.85;46.28;;;9.80;99.90;;;8.84;100.00;97623.22;5050859;28;20822;-74
2023/01/01 01:21:31;;;;;;;63.45;36.22;;;9.80;99.90;;;8.86;100.00;97633.56;5050481;28;20397;-74
2023/01/01 01:24:00;;;;;;;65.50;34.47;;;9.80;99.90;;;8.82;100.00;97635.84;5050448;28;20813;-74
2023/01/01 01:26:29;;;;;;;68.57;34.85;;;9.80;99.90;;;8.77;100.00;97635.75;5050661;28;20463;-74
2023/01/01 01:28:55;;;;;;;69.25;35.08;;;9.80;99.90;;;8.77;100.00;97635.75;5050690;28;20793;-74
2023/01/01 01:31:25;;;;;;;67.43;33.63;;;9.80;99.90;;;8.78;100.00;97631.28;5032244;28;20779;-74
2023/01/01 01:33:51;;;;;;;60.45;32.47;;;9.80;99.90;;;8.79;100.00;97635.53;5050195;28;20401;-74
2023/01/01 01:36:18;;;;;;;661.45;395.55;;;9.80;99.90;;;8.75;100.00;97637.00;5050491;28;20424;-74
2023/01/01 01:38:44;;;;;;;115.18;58.80;;;9.70;99.90;;;8.70;100.00;97624.53;5050412;28;20510;-74
2023/01/01 01:41:14;;;;;;;64.87;33.47;;;9.70;99.90;;;8.68;100.00;97631.88;5050540;28;20401;-74
2023/01/01 01:43:53;;;;;;;51.77;26.07;;;9.70;99.90;;;8.61;100.00;97633.03;5050018;28;20483;-75
2023/01/01 01:46:27;;;;;;;55.33;25.63;;;9.60;99.90;;;8.58;100.00;97633.47;5050921;28;20397;-74
2023/01/01 01:48:56;;;;;;;56.63;27.02;;;9.60;99.90;;;8.55;100.00;97642.69;5049833;28;20441;-74
2023/01/01 01:51:30;;;;;;;55.90;26.98;;;9.50;99.90;;;8.54;100.00;97639.25;5049914;28;20505;-74
2023/01/01 01:54:02;;;;;;;46.28;25.35;;;9.50;99.90;;;8.54;100.00;97641.88;5049987;28;20490;-75
2023/01/01 01:56:38;;;;;;;60.20;26.95;;;9.50;99.90;;;8.51;100.00;97641.53;5050254;28;20416;-74
2023/01/01 01:59:04;;;;;;;53.08;23.60;;;9.50;99.90;;;8.46;100.00;97633.50;5050101;28;20921;-74
2023/01/01 02:01:30;;;;;;;43.05;22.65;;;9.50;99.90;;;8.41;100.00;97634.22;5049661;28;20472;-74
2023/01/01 02:03:58;;;;;;;44.25;22.65;;;9.40;99.90;;;8.39;100.00;97631.00;5049834;28;20409;-74
2023/01/01 02:06:25;;;;;;;50.55;24.23;;;9.40;99.90;;;8.37;100.00;97640.16;5050150;28;20397;-74
2023/01/01 02:08:52;;;;;;;45.40;23.33;;;9.30;99.90;;;8.37;100.00;97635.69;5050118;28;20444;-74
2023/01/01 02:11:18;;;;;;;50.45;24.95;;;9.40;99.90;;;8.36;100.00;97631.44;5049443;28;20420;-74
2023/01/01 02:13:45;;;;;;;48.95;24.42;;;9.40;99.90;;;8.37;100.00;97630.41;5049560;28;20402;-74
2023/01/01 02:16:18;;;;;;;69.40;33.33;;;9.40;99.90;;;8.38;100.00;97632.03;5049732;28;20531;-74
2023/01/01 02:18:51;;;;;;;62.10;29.25;;;9.40;99.90;;;8.39;100.00;97652.09;5049749;28;20401;-74
2023/01/01 02:21:23;;;;;;;57.17;27.85;;;9.40;99.90;;;8.36;100.00;97641.19;5049220;28;20413;-74
2023/01/01 02:24:21;;;;;;;62.13;29.90;;;9.40;99.90;;;8.37;100.00;97640.16;5049379;28;20429;-74
2023/01/01 02:26:56;;;;;;;61.72;31.17;;;9.40;99.90;;;8.38;100.00;97636.50;5049753;28;20494;-74
2023/01/01 02:29:35;;;;;;;62.13;30.27;;;9.30;99.90;;;8.44;100.00;97638.19;5049807;28;20400;-74
2023/01/01 02:32:06;;;;;;;51.92;28.27;;;9.40;99.90;;;8.45;100.00;97637.97;5049139;28;20480;-74
2023/01/01 02:34:38;;;;;;;42.60;23.15;;;9.50;99.90;;;8.49;100.00;97635.69;5049309;28;20402;-74
2023/01/01 02:37:08;;;;;;;46.90;24.50;;;9.50;99.90;;;8.59;100.00;97624.53;5049548;28;20451;-74
2023/01/01 02:39:40;;;;;;;34.92;19.60;;;9.50;99.90;;;8.65;100.00;97627.03;5049639;28;20484;-74
2023/01/01 02:42:07;;;;;;;33.20;18.15;;;9.60;99.90;;;8.68;100.00;97631.88;5049002;28;20409;-74
2023/01/01 02:44:40;;;;;;;27.55;14.73;;;9.70;99.90;;;8.72;100.00;97633.00;5049411;28;20877;-74
2023/01/01 02:47:10;;;;;;;28.45;15.07;;;9.70;99.90;;;8.76;100.00;97628.06;5049701;28;20519;-74
2023/01/01 02:49:45;;;;;;;22.80;12.77;;;9.70;99.90;;;8.90;100.00;97639.97;5049677;28;20968;-74
2023/01/01 02:52:20;;;;;;;24.33;12.10;;;9.80;99.90;;;9.05;100.00;97634.97;5049073;28;20918;-74
2023/01/01 02:54:58;;;;;;;23.30;12.05;;;10.00;99.90;;;9.17;100.00;97633.09;5049313;28;20883;-74
2023/01/01 02:57:35;;;;;;;21.05;11.10;;;10.10;99.90;;;9.21;100.00;97641.34;5049779;28;20402;-74
2023/01/01 03:00:23;;;;;;;18.80;10.32;;;10.10;99.90;;;9.27;100.00;97643.06;5051062;28;20940;-74
2023/01/01 03:03:07;;;;;;;17.45;9.48;;;10.20;99.90;;;9.23;100.00;97648.03;5052921;28;20481;-74
2023/01/01 03:06:21;;;;;;;17.77;10.32;;;10.20;99.90;;;9.26;100.00;97652.81;5053578;28;20390;-74
2023/01/01 03:08:40;;;;;;;17.42;9.93;;;10.20;99.90;;;9.25;100.00;97640.63;5053617;28;20441;-74
2023/01/01 03:11:11;;;;;;;15.60;8.73;;;10.20;99.90;;;9.20;100.00;97632.63;5053371;28;20496;-74
2023/01/01 03:13:47;;;;;;;14.98;7.53;;;10.10;99.90;;;9.29;100.00;97631.22;5035039;28;20775;-74
2023/01/01 03:16:21;;;;;;;10.88;7.05;;;10.30;99.90;;;9.43;100.00;97637.00;5053444;28;20413;-74
2023/01/01 03:19:09;;;;;;;9.57;6.22;;;10.40;99.90;;;9.42;100.00;97645.16;5053302;28;20416;-74
2023/01/01 03:21:40;;;;;;;12.10;6.53;;;10.40;99.90;;;9.35;100.00;97653.25;5034984;28;20770;-74
2023/01/01 03:24:08;;;;;;;14.98;7.25;;;10.30;99.90;;;9.23;100.00;97663.88;5052796;28;20802;-74
2023/01/01 03:26:35;;;;;;;9.95;5.90;;;10.20;99.90;;;9.13;100.00;97668.94;5053240;28;20898;-74
2023/01/01 03:29:04;;;;;;;13.10;6.97;;;10.10;99.90;;;9.05;100.00;97665.88;5053079;28;20879;-74
2023/01/01 03:31:32;;;;;;;11.80;6.78;;;10.00;99.90;;;8.98;100.00;97673.13;5052548;28;20483;-74
2023/01/01 03:34:04;;;;;;;12.75;6.72;;;9.90;99.90;;;8.86;100.00;97675.78;5052824;28;20441;-74
2023/01/01 03:36:34;;;;;;;12.45;6.78;;;9.80;99.90;;;8.80;100.00;97680.16;5053382;28;20401;-74
2023/01/01 03:39:07;;;;;;;12.88;6.70;;;9.80;99.90;;;8.76;100.00;97691.41;5052846;28;20417;-74
2023/01/01 03:41:39;;;;;;;14.00;6.85;;;9.80;99.90;;;8.71;100.00;97696.59;5053012;28;20408;-74
2023/01/01 03:44:12;;;;;;;16.13;7.45;;;9.70;99.90;;;8.64;100.00;97702.00;5054752;28;20408;-75
2023/01/01 03:46:39;;;;;;;14.13;7.07;;;9.60;99.90;;;8.58;100.00;97700.25;5054878;28;20871;-74
2023/01/01 03:51:59;;;;;;;13.02;6.70;;;9.60;99.90;;;8.53;100.00;97700.16;5049760;28;20990;-77
2023/01/01 03:54:37;;;;;;;13.30;7.35;;;9.50;99.90;;;8.49;100.00;97705.06;5052395;28;20891;-75
2023/01/01 03:57:11;;;;;;;12.55;6.63;;;9.50;99.90;;;8.46;100.00;97710.00;5052690;28;20396;-75
2023/01/01 03:59:47;;;;;;;13.52;6.88;;;9.50;99.90;;;8.43;100.00;97697.28;5047205;28;20913;-75
2023/01/01 04:02:19;;;;;;;15.20;6.93;;;9.40;99.90;;;8.38;100.00;97697.16;5032050;28;20395;-77
2023/01/01 04:04:46;;;;;;;14.10;6.90;;;9.40;99.90;;;8.33;100.00;97702.34;5032338;28;20441;-76
2023/01/01 04:07:12;;;;;;;14.55;6.82;;;9.30;99.90;;;8.27;100.00;97703.22;5014779;28;20877;-75
2023/01/01 04:09:42;;;;;;;12.65;6.72;;;9.30;99.90;;;8.23;100.00;97694.13;5014686;28;20521;-77
2023/01/01 04:12:09;;;;;;;13.38;6.75;;;9.20;99.90;;;8.14;100.00;97691.84;5031505;28;20438;-77
2023/01/01 04:14:40;;;;;;;15.85;7.05;;;9.20;99.90;;;8.09;100.00;97694.38;5014324;28;20924;-77
2023/01/01 04:17:08;;;;;;;13.13;7.35;;;9.10;99.90;;;8.07;100.00;97695.59;5031024;28;20419;-77
2023/01/01 04:19:36;;;;;;;16.85;7.28;;;9.10;99.90;;;8.03;100.00;97689.19;5031883;28;20430;-75
2023/01/01 04:22:03;;;;;;;17.48;8.10;;;9.10;99.90;;;8.02;100.00;97692.84;5031709;28;20932;-76
2023/01/01 04:24:29;;;;;;;14.93;7.20;;;9.00;99.90;;;7.97;100.00;97688.25;5032031;28;20609;-77
2023/01/01 04:26:56;;;;;;;14.00;7.10;;;9.00;99.90;;;7.93;100.00;97688.94;5032129;28;20403;-76
2023/01/01 04:29:22;;;;;;;16.50;8.18;;;9.00;99.90;;;7.93;100.00;97689.75;5032048;28;20403;-76
2023/01/01 04:31:48;;;;;;;13.07;7.70;;;8.90;99.90;;;7.88;100.00;97684.34;5031501;28;20889;-76
2023/01/01 04:34:15;;;;;;;20.02;7.70;;;8.90;99.90;;;7.85;100.00;97678.72;5031593;28;20403;-75
2023/01/01 04:36:42;;;;;;;16.88;7.60;;;8.90;99.90;;;7.80;100.00;97686.50;5032025;28;20403;-77
2023/01/01 04:39:08;;;;;;;17.50;7.97;;;8.80;99.90;;;7.80;100.00;97686.50;5031855;28;20422;-76
2023/01/01 04:41:34;;;;;;;22.65;7.90;;;8.80;99.90;;;7.75;100.00;97687.97;5031364;28;20411;-77
2023/01/01 04:44:00;;;;;;;15.60;7.80;;;8.80;99.90;;;7.74;100.00;97688.22;5031321;28;20777;-76
2023/01/01 04:46:26;;;;;;;20.45;8.88;;;8.70;99.90;;;7.75;100.00;97685.34;5031890;28;20819;-77
2023/01/01 04:48:53;;;;;;;16.23;8.48;;;8.70;99.90;;;7.75;100.00;97695.06;5031941;28;20612;-77
2023/01/01 04:51:20;;;;;;;18.13;9.18;;;8.80;99.90;;;7.74;100.00;97693.50;5031016;28;20403;-76
2023/01/01 04:53:47;;;;;;;21.10;9.40;;;8.80;99.90;;;7.76;100.00;97702.75;5031440;28;20405;-77
2023/01/01 04:56:16;;;;;;;16.25;9.05;;;8.70;99.90;;;7.74;100.00;97701.41;5030996;28;20415;-77
2023/01/01 04:58:43;;;;;;;19.02;9.43;;;8.80;99.90;;;7.76;100.00;97702.75;5031217;28;20403;-77
2023/01/01 05:01:19;;;;;;;21.42;10.35;;;8.80;99.90;;;7.72;100.00;97706.09;5031231;28;20407;-76
2023/01/01 05:03:46;;;;;;;23.25;10.25;;;8.70;99.90;;;7.69;100.00;97707.31;5011508;28;20875;-77
2023/01/01 05:06:13;;;;;;;24.33;10.45;;;8.70;99.90;;;7.67;100.00;97706.75;5011598;28;20826;-76
2023/01/01 05:08:41;;;;;;;20.38;10.40;;;8.70;99.90;;;7.65;100.00;97706.19;5011605;28;20937;-77
2023/01/01 05:11:11;;;;;;;24.10;10.48;;;8.70;99.90;;;7.63;100.00;97704.78;5011296;28;20540;-76
2023/01/01 05:13:39;;;;;;;20.42;10.13;;;8.60;99.90;;;7.62;100.00;97711.88;5010419;28;20444;-77
2023/01/01 05:16:09;;;;;;;24.58;10.23;;;8.70;99.90;;;7.66;100.00;97705.16;5011527;28;20400;-77
2023/01/01 05:18:35;;;;;;;22.15;10.13;;;8.70;99.90;;;7.65;100.00;97706.19;4993892;28;20439;-76
2023/01/01 05:21:03;;;;;;;19.80;9.88;;;8.70;99.90;;;7.68;100.00;97716.25;5011175;28;20503;-76
2023/01/01 05:23:29;;;;;;;16.50;8.90;;;8.70;99.90;;;7.71;100.00;97707.09;5009594;28;20409;-77
2023/01/01 05:25:55;;;;;;;21.40;9.40;;;8.70;99.90;;;7.70;100.00;97718.66;5011373;28;20455;-76
2023/01/01 05:28:23;;;;;;;16.67;8.85;;;8.70;99.90;;;7.73;100.00;97715.59;5009918;28;20830;-76
2023/01/01 05:30:49;;;;;;;19.02;8.75;;;8.70;99.90;;;7.72;100.00;97722.69;5011180;28;20456;-76
2023/01/01 05:33:15;;;;;;;18.85;8.43;;;8.70;99.90;;;7.76;100.00;97720.41;5010253;28;20408;-76
2023/01/01 05:35:41;;;;;;;16.60;8.50;;;8.70;99.90;;;7.77;100.00;97717.53;5009766;28;20416;-77
2023/01/01 05:38:07;;;;;;;14.90;8.10;;;8.80;99.90;;;7.86;100.00;97719.88;5011324;28;20451;-77
2023/01/01 05:40:33;;;;;;;15.85;8.27;;;8.90;99.90;;;7.91;100.00;97718.16;5030467;28;20513;-76
2023/01/01 05:42:59;;;;;;;16.40;7.20;;;8.90;99.90;;;7.90;100.00;97721.81;5029749;28;20419;-76
2023/01/01 05:45:26;;;;;;;10.95;6.80;;;8.90;99.90;;;7.98;100.00;97725.97;5030547;28;20446;-77
2023/01/01 05:47:52;;;;;;;15.05;7.03;;;9.00;99.90;;;7.96;100.00;97720.94;5030475;28;20414;-76
2023/01/01 05:50:18;;;;;;;15.33;6.93;;;8.90;99.90;;;7.97;100.00;97725.16;5030224;28;20410;-76
2023/01/01 05:52:44;;;;;;;18.35;7.07;;;9.00;99.90;;;7.97;100.00;97729.66;5029595;28;20747;-76
2023/01/01 05:55:10;;;;;;;13.55;6.88;;;9.00;99.90;;;7.94;100.00;97730.91;5030474;28;20429;-77
2023/01/01 05:57:36;;;;;;;11.63;6.25;;;9.00;99.90;;;7.92;100.00;97740.03;5030484;28;20411;-76
2023/01/01 06:00:02;;;;;;;11.47;6.20;;;8.90;99.90;;;7.88;100.00;97736.25;5030307;28;20473;-76
2023/01/01 06:02:30;;;;;;;15.60;6.50;;;8.90;99.90;;;7.84;100.00;97738.53;5029808;28;20766;-76
2023/01/01 06:04:56;;;;;;;13.30;6.57;;;8.90;99.90;;;7.81;100.00;97741.63;5029938;28;20406;-77
2023/01/01 06:07:22;;;;;;;14.70;7.18;;;8.80;99.90;;;7.80;100.00;97742.66;5030414;28;20456;-77
2023/01/01 06:09:48;;;;;;;13.57;6.57;;;8.80;99.90;;;7.74;100.00;97741.69;5030343;28;20431;-76
2023/01/01 06:12:14;;;;;;;11.85;6.65;;;8.80;99.90;;;7.74;100.00;97743.56;5029624;28;20399;-77
2023/01/01 06:14:40;;;;;;;15.02;6.95;;;8.70;99.90;;;7.77;100.00;97748.38;5012044;28;20888;-76
2023/01/01 06:17:06;;;;;;;16.95;7.65;;;8.80;99.90;;;7.81;100.00;97749.53;5030429;28;20434;-76
2023/01/01 06:19:33;;;;;;;13.77;6.90;;;8.80;99.90;;;7.86;100.00;97749.66;5030066;28;20419;-77
2023/01/01 06:21:59;;;;;;;11.93;6.88;;;8.90;99.90;;;7.86;100.00;97752.28;5029466;28;20494;-76
2023/01/01 06:24:25;;;;;;;12.63;6.85;;;8.80;99.90;;;7.84;100.00;97756.97;5012056;28;20502;-77
2023/01/01 06:26:50;;;;;;;15.27;7.60;;;8.90;99.90;;;7.83;100.00;97759.84;5030116;28;20489;-77
2023/01/01 06:29:16;;;;;;;10.98;7.15;;;8.80;99.90;;;7.80;100.00;97758.47;5029781;28;20464;-77
2023/01/01 06:31:42;;;;;;;13.75;6.95;;;8.80;99.90;;;7.76;100.00;97758.09;5011647;28;20450;-77
2023/01/01 06:34:08;;;;;;;16.10;7.70;;;8.80;99.90;;;7.72;100.00;97759.59;5028146;28;20445;-77
2023/01/01 06:36:35;;;;;;;18.23;7.90;;;8.70;99.90;;;7.66;100.00;97757.03;5029958;28;20545;-76
2023/01/01 06:39:02;;;;;;;14.82;7.80;;;8.70;99.90;;;7.61;100.00;97762.97;5029847;28;20410;-76
2023/01/01 06:41:29;;;;;;;15.63;7.70;;;8.60;99.90;;;7.57;100.00;97768.91;5029466;28;20426;-76
2023/01/01 06:43:57;;;;;;;15.13;7.85;;;8.60;99.90;;;7.53;100.00;97767.72;5029769;28;20896;-77
2023/01/01 06:46:25;;;;;;;22.10;9.05;;;8.50;99.90;;;7.50;100.00;97771.63;5028118;28;20430;-77
2023/01/01 06:48:54;;;;;;;20.02;8.70;;;8.50;99.90;;;7.53;100.00;97775.63;5041436;28;20406;-77
2023/01/01 06:51:22;;;;;;;20.58;8.82;;;8.50;99.90;;;7.53;100.00;97773.00;5048985;28;20401;-76
2023/01/01 06:53:50;;;;;;;16.42;8.95;;;8.60;99.90;;;7.52;100.00;97769.56;5049325;28;20398;-77
2023/01/01 06:56:17;;;;;;;18.70;8.93;;;8.50;99.90;;;7.54;100.00;97771.97;5049508;28;20906;-76
2023/01/01 06:58:43;;;;;;;15.85;8.18;;;8.50;99.90;;;7.54;100.00;97774.59;5049820;28;20405;-76
2023/01/01 07:01:11;;;;;;;20.48;9.30;;;8.50;99.90;;;7.53;100.00;97763.25;5048210;28;20417;-76
2023/01/01 07:03:39;;;;;;;19.85;9.35;;;8.50;99.90;;;7.50;100.00;97769.00;5049209;28;20436;-76
2023/01/01 07:06:06;;;;;;;18.55;8.75;;;8.50;99.90;;;7.50;100.00;97763.72;5049511;28;20397;-76
2023/01/01 07:08:32;;;;;;;20.77;9.43;;;8.50;99.90;;;7.52;100.00;97766.91;5049657;28;20879;-76
2023/01/01 07:10:59;;;;;;;19.53;9.47;;;8.50;99.90;;;7.55;100.00;97771.75;5049060;28;20455;-76
2023/01/01 07:13:29;;;;;;;18.13;8.90;;;8.50;99.90;;;7.48;100.00;97765.78;5048639;28;20401;-76
2023/01/01 07:15:55;;;;;;;17.33;9.32;;;8.50;99.90;;;7.53;100.00;97770.38;5049456;28;20406;-76
2023/01/01 07:18:23;;;;;;;22.65;9.57;;;8.50;99.90;;;7.48;100.00;97772.88;5031492;28;20425;-76
2023/01/01 07:20:51;;;;;;;17.75;8.52;;;8.50;99.90;;;7.45;100.00;97779.38;5049309;28;20504;-76
2023/01/01 07:23:17;;;;;;;15.68;8.82;;;8.40;99.90;;;7.45;100.00;97778.56;5048330;28;20463;-75
2023/01/01 07:25:43;;;;;;;17.83;8.82;;;8.50;99.90;;;7.42;100.00;97773.75;5049364;28;20398;-76
2023/01/01 07:28:12;;;;;;;20.08;9.25;;;8.40;99.90;;;7.43;100.00;97775.38;5049294;28;20401;-76
2023/01/01 07:30:37;;;;;;;18.17;9.13;;;8.40;99.90;;;7.42;100.00;97774.56;5049334;28;20949;-76
2023/01/01 07:33:03;;;;;;;22.35;8.88;;;8.40;99.90;;;7.39;100.00;97781.06;5048303;28;20397;-76
2023/01/01 07:35:29;;;;;;;18.33;8.80;;;8.40;99.90;;;7.39;100.00;97775.00;5048958;28;20794;-76
2023/01/01 07:37:55;;;;;;;16.13;8.20;;;8.40;99.90;;;7.38;100.00;97781.28;5049255;28;20401;-76
2023/01/01 07:40:21;;;;;;;17.63;8.73;;;8.40;99.90;;;7.37;100.00;97795.47;5049029;28;20483;-77
2023/01/01 07:42:47;;;;;;;17.45;8.60;;;8.40;99.90;;;7.41;100.00;97801.13;5048379;28;20454;-76
2023/01/01 07:45:14;;;;;;;18.08;8.48;;;8.40;99.90;;;7.43;100.00;97804.34;5049366;28;20910;-77
2023/01/01 07:47:40;;;;;;;16.17;8.30;;;8.40;99.90;;;7.44;100.00;97808.59;5052725;28;20413;-76
2023/01/01 07:50:13;;;;;;;18.00;8.95;;;8.40;99.90;;;7.49;100.00;97814.00;5052591;28;20408;-75
2023/01/01 07:52:39;;;;;;;17.30;8.82;;;8.50;99.90;;;7.47;100.00;97808.94;5051802;28;20406;-75
2023/01/01 07:55:07;;;;;;;17.30;8.85;;;8.50;99.90;;;7.49;100.00;97812.16;5052507;28;20416;-76
2023/01/01 07:57:32;;;;;;;14.43;7.93;;;8.50;99.90;;;7.49;100.00;97822.69;5052814;28;20405;-73
2023/01/01 07:59:58;;;;;;;18.88;8.27;;;8.50;99.90;;;7.49;100.00;97822.69;5052044;28;20842;-73
2023/01/01 08:02:26;;;;;;;17.43;8.20;;;8.50;99.90;;;7.47;100.00;97824.75;5040207;28;20453;-73
2023/01/01 08:04:51;;;;;;;16.55;8.20;;;8.50;99.90;;;7.55;100.00;97831.53;5022608;28;20434;-75
2023/01/01 08:07:17;;;;;;;15.18;7.60;;;8.50;99.90;;;7.53;100.00;97833.59;5032258;28;20897;-76
2023/01/01 08:09:43;;;;;;;17.93;7.70;;;8.60;99.90;;;7.61;100.00;97838.56;5028257;28;20441;-74
2023/01/01 08:12:09;;;;;;;14.20;7.55;;;8.60;99.90;;;7.64;100.00;97838.13;5038850;28;20415;-76
2023/01/01 08:14:35;;;;;;;16.65;8.15;;;8.60;99.90;;;7.70;100.00;97835.41;5036513;28;20408;-77
2023/01/01 08:17:01;;;;;;;16.05;7.25;;;8.70;99.90;;;7.71;100.00;97846.75;5025191;28;20829;-76
2023/01/01 08:19:28;;;;;;;12.30;7.10;;;8.70;99.90;;;7.73;100.00;97845.53;5031086;28;20595;-81
2023/01/01 08:21:54;;;;;;;12.80;7.28;;;8.70;99.90;;;7.74;100.00;97843.69;5039840;28;20399;-78
2023/01/01 08:24:20;;;;;;;13.95;6.80;;;8.70;99.90;;;7.76;100.00;97849.53;5048624;28;20921;-79
2023/01/01 08:26:49;;;;;;;13.97;6.93;;;8.80;99.90;;;7.74;100.00;97848.97;5052219;28;20405;-79
2023/01/01 08:29:15;;;;;;;14.30;7.45;;;8.80;99.90;;;7.75;100.00;97845.28;5052100;28;20778;-77
2023/01/01 08:31:41;;;;;;;12.55;6.68;;;8.80;99.90;;;7.73;100.00;97848.16;5051463;28;20412;-77
2023/01/01 08:34:07;;;;;;;13.32;7.20;;;8.70;99.90;;;7.75;100.00;97856.63;5051563;28;20428;-76
2023/01/01 08:36:35;;;;;;;14.23;7.38;;;8.80;99.90;;;7.80;100.00;97853.34;5052047;28;20475;-80
2023/01/01 08:39:01;;;;;;;12.57;6.70;;;8.80;99.90;;;7.81;100.00;97860.22;5042918;28;20425;-78
2023/01/01 08:41:27;;;;;;;13.32;6.82;;;8.80;99.90;;;7.85;100.00;97853.47;5040454;28;20411;-76
2023/01/01 08:43:53;;;;;;;11.43;6.63;;;8.80;99.90;;;7.87;100.00;97855.88;5051466;28;20887;-77
2023/01/01 08:46:19;;;;;;;13.90;7.03;;;8.80;99.90;;;7.90;100.00;97853.59;5051811;28;20451;-83
2023/01/01 08:48:45;;;;;;;16.58;7.63;;;8.90;99.90;;;7.88;100.00;97857.50;5041343;28;20447;-78
2023/01/01 08:51:11;;;;;;;13.53;6.10;;;8.90;99.90;;;7.96;100.00;97863.28;5030364;28;20946;-82
2023/01/01 08:53:38;;;;;;;12.80;6.65;;;8.90;99.90;;;8.00;100.00;97855.72;5027833;28;20500;-74
2023/01/01 08:56:07;;;;;;;14.80;7.05;;;9.00;99.90;;;8.07;100.00;97853.78;5029080;28;20857;-81
2023/01/01 08:58:35;;;;;;;10.80;6.20;;;9.00;99.90;;;8.09;100.00;97851.75;5021019;28;20501;-78
2023/01/01 09:01:02;;;;;;;12.93;6.80;;;9.00;99.90;;;8.16;100.00;97850.63;5031099;28;20419;-77
2023/01/01 09:03:28;;;;;;;12.55;6.85;;;9.10;99.90;;;8.23;100.00;97860.28;5024191;28;20413;-76
2023/01/01 09:05:55;;;;;;;13.55;6.60;;;9.20;99.90;;;8.24;100.00;97859.25;5021316;28;20457;-77
2023/01/01 09:08:22;;;;;;;11.95;6.15;;;9.20;99.90;;;8.32;100.00;97857.13;5019164;28;20409;-78
2023/01/01 09:10:49;;;;;;;12.02;6.05;;;9.20;99.90;;;8.37;100.00;97857.25;5011658;28;20397;-77
2023/01/01 09:13:18;;;;;;;11.38;6.35;;;9.40;99.90;;;8.46;100.00;97858.56;5010618;28;20417;-77
2023/01/01 09:15:44;;;;;;;10.00;5.70;;;9.40;99.90;;;8.60;100.00;97859.16;5011576;28;20403;-79
2023/01/01 09:18:10;;;;;;;12.10;5.77;;;9.50;99.90;;;8.71;100.00;97866.31;5011721;28;20525;-78
2023/01/01 09:20:37;;;;;;;11.32;5.70;;;9.60;99.90;;;8.84;100.00;97867.91;5011178;28;20452;-78
2023/01/01 09:23:03;;;;;;;11.68;4.97;;;9.70;99.90;;;8.86;100.00;97865.88;5010571;28;20427;-78
2023/01/01 09:25:30;;;;;;;8.63;5.50;;;9.80;99.90;;;8.89;100.00;97874.13;5011365;28;20411;-78
2023/01/01 09:27:58;;;;;;;8.32;5.13;;;9.80;99.90;;;9.01;100.00;97868.88;5011100;28;20405;-78
2023/01/01 09:30:24;;;;;;;9.17;5.20;;;9.90;99.90;;;9.05;100.00;97864.72;5011020;28;20911;-78
2023/01/01 09:32:50;;;;;;;9.73;5.28;;;10.00;99.90;;;9.12;100.00;97868.03;4992581;28;20740;-78
2023/01/01 09:35:16;;;;;;;10.47;5.20;;;10.00;99.90;;;9.20;100.00;97862.41;5010947;28;20459;-78
2023/01/01 09:37:42;;;;;;;9.20;5.38;;;10.10;99.90;;;9.25;100.00;97856.44;5014311;28;20462;-77
2023/01/01 09:40:25;;;;;;;12.70;6.05;;;10.20;99.90;;;9.36;100.00;97871.50;5020056;28;20492;-76
2023/01/01 09:43:05;;;;;;;9.33;5.83;;;10.20;99.90;;;9.38;100.00;97877.34;5014964;28;20410;-77
2023/01/01 09:45:39;;;;;;;9.88;5.65;;;10.30;99.90;;;9.42;100.00;97877.69;5021541;28;20785;-78
2023/01/01 09:48:11;;;;;;;11.60;5.78;;;10.30;99.90;;;9.44;100.00;97880.91;5010019;28;20415;-80
2023/01/01 09:50:40;;;;;;;9.20;4.95;;;10.40;99.90;;;9.46;100.00;97882.28;5055905;22;20435;-73
2023/01/01 09:53:14;;;;;;;9.80;4.80;;;10.40;99.90;;;9.64;100.00;97884.78;5068663;28;20500;-74
2023/01/01 09:55:46;;;;;;;8.38;4.70;;;10.50;99.90;;;9.72;100.00;97880.97;5060476;28;20403;-74
2023/01/01 09:58:14;;;;;;;7.22;4.60;;;10.60;99.90;;;9.86;100.00;97878.88;5063645;28;20407;-73
2023/01/01 10:00:44;;;;;;;8.88;4.80;;;10.70;99.90;;;10.08;100.00;97879.81;5066280;28;20943;-74
2023/01/01 10:03:28;;;;;;;9.63;4.70;;;10.90;99.90;;;10.36;100.00;97874.59;5069206;28;20912;-74
2023/01/01 10:06:07;;;;;;;9.35;4.47;;;11.20;99.90;;;10.73;100.00;97876.81;5070170;28;20395;-75
2023/01/01 10:08:53;;;;;;;9.85;4.85;;;11.60;99.90;;;11.23;100.00;97885.53;5069700;28;20395;-74
2023/01/01 10:11:30;;;;;;;11.55;4.50;;;12.00;99.90;;;11.71;100.00;97885.94;5069423;28;20439;-75
2023/01/01 10:14:00;;;;;;;7.70;3.70;;;12.60;99.90;;;12.23;100.00;97876.53;5069605;28;20400;-75
2023/01/01 10:16:33;;;;;;;8.05;3.92;;;13.10;99.90;;;12.56;100.00;97874.69;5057332;28;20879;-74
2023/01/01 10:19:06;;;;;;;6.80;3.38;;;13.50;99.90;;;12.98;100.00;97878.28;5049524;28;20406;-74
2023/01/01 10:21:36;;;;;;;10.65;3.60;;;13.90;99.90;;;13.47;100.00;97859.47;5047782;28;20763;-74
2023/01/01 10:24:25;;;;;;;6.00;3.42;;;14.40;99.90;;;13.82;100.00;97859.66;5049299;28;20397;-74